createdAt,value
2023-01-08T00:03:40.614Z,-1.28
2023-01-08T00:08:43.281Z,-1.15
2023-01-08T00:13:45.474Z,-1.12
2023-01-08T00:18:48.479Z,-1.28
2023-01-08T00:23:50.620Z,-1.49
2023-01-08T00:28:52.888Z,-1.32
2023-01-08T00:33:55.074Z,-1.40
2023-01-08T00:39:00.111Z,-1.43
2023-01-08T00:44:02.680Z,-1.65
2023-01-08T00:49:04.911Z,-1.73
2023-01-08T00:54:07.250Z,-1.61
2023-01-08T00:59:09.513Z,-1.55
2023-01-08T01:04:11.669Z,-1.52
2023-01-08T01:09:14.122Z,-1.42
2023-01-08T01:14:16.739Z,-1.62
2023-01-08T01:19:19.111Z,-1.84
2023-01-08T01:24:24.051Z,-1.53
2023-01-08T01:29:26.334Z,-1.78
2023-01-08T01:34:33.140Z,-1.75
2023-01-08T01:39:35.419Z,-1.52
2023-01-08T01:44:46.216Z,-1.64
2023-01-08T01:50:00.747Z,-1.54
2023-01-08T01:55:07.686Z,-1.58
2023-01-08T02:00:10.664Z,-1.88
2023-01-08T02:05:17.332Z,-1.88
2023-01-08T02:10:19.813Z,-1.88
2023-01-08T02:15:27.780Z,-1.86
2023-01-08T02:20:29.743Z,-1.82
2023-01-08T02:25:43.028Z,-1.98
2023-01-08T02:30:46.204Z,-2.29
2023-01-08T02:36:10.694Z,-2.08
2023-01-08T02:41:14.582Z,-2.15
2023-01-08T02:46:22.573Z,-2.32
2023-01-08T02:51:31.379Z,-2.14
2023-01-08T02:56:41.835Z,-2.16
2023-01-08T03:01:45.897Z,-2.64
2023-01-08T03:06:48.933Z,-2.26
2023-01-08T03:12:00.672Z,-2.16
2023-01-08T03:17:13.408Z,-2.23
2023-01-08T03:22:18.304Z,-2.32
2023-01-08T03:27:25.276Z,-2.35
2023-01-08T03:32:31.023Z,-2.33
2023-01-08T03:37:39.151Z,-2.60
2023-01-08T03:42:41.452Z,-2.56
2023-01-08T03:47:45.932Z,-2.52
2023-01-08T03:52:48.657Z,-2.25
2023-01-08T03:57:50.867Z,-2.31
2023-01-08T04:02:52.943Z,-2.52
2023-01-08T04:07:58.176Z,-2.32
2023-01-08T04:13:00.519Z,-2.45
2023-01-08T04:18:02.792Z,-2.35
2023-01-08T04:23:04.887Z,-2.38
2023-01-08T04:28:07.035Z,-2.25
2023-01-08T04:33:09.371Z,-2.32
2023-01-08T04:38:11.761Z,-2.30
2023-01-08T04:43:14.256Z,-2.38
2023-01-08T04:48:16.746Z,-2.32
2023-01-08T04:53:18.880Z,-2.38
2023-01-08T04:58:21.426Z,-2.44
2023-01-08T05:03:23.740Z,-2.50
2023-01-08T05:08:26.079Z,-2.65
2023-01-08T05:13:29.301Z,-2.45
2023-01-08T05:18:31.975Z,-2.56
2023-01-08T05:23:34.677Z,-2.32
2023-01-08T05:28:36.728Z,-2.47
2023-01-08T05:33:39.266Z,-2.35
2023-01-08T05:38:42.016Z,-2.26
2023-01-08T05:43:44.505Z,-2.32
2023-01-08T05:48:46.752Z,-2.46
2023-01-08T05:53:49.096Z,-2.23
2023-01-08T05:58:55.273Z,-2.19
2023-01-08T06:03:59.191Z,-2.15
2023-01-08T06:09:01.321Z,-2.23
2023-01-08T06:14:03.479Z,-2.25
2023-01-08T06:19:05.718Z,-2.13
2023-01-08T06:24:08.052Z,-2.14
2023-01-08T06:29:10.270Z,-2.19
2023-01-08T06:34:22.007Z,-2.28
2023-01-08T06:39:24.192Z,-2.26
2023-01-08T06:44:26.728Z,-2.05
2023-01-08T06:49:29.072Z,-1.88
2023-01-08T06:54:31.152Z,-1.62
2023-01-08T06:59:33.498Z,-1.96
2023-01-08T07:04:41.771Z,-1.83
2023-01-08T07:09:44.336Z,-1.42
2023-01-08T07:14:55.697Z,-1.37
2023-01-08T07:19:58.129Z,-1.02
2023-01-08T07:25:03.315Z,-0.71
2023-01-08T07:30:07.152Z,-0.71
2023-01-08T07:35:09.827Z,0.71
2023-01-08T07:40:12.885Z,5.54
2023-01-08T07:45:16.664Z,12.68
2023-01-08T07:50:20.457Z,16.64
2023-01-08T07:55:23.089Z,17.95
2023-01-08T08:00:25.569Z,19.49
2023-01-08T08:05:27.650Z,18.68
2023-01-08T08:10:30.119Z,19.10
2023-01-08T08:15:38.523Z,19.51
2023-01-08T08:20:40.822Z,18.62
2023-01-08T08:25:43.354Z,17.98
2023-01-08T08:30:45.457Z,17.43
2023-01-08T08:35:53.689Z,17.75
2023-01-08T08:40:56.073Z,17.42
2023-01-08T08:45:58.515Z,17.26
2023-01-08T08:51:01.113Z,17.40
2023-01-08T08:56:03.269Z,16.90
2023-01-08T09:01:05.657Z,17.19
2023-01-08T09:06:13.921Z,17.74
2023-01-08T09:11:16.257Z,18.23
2023-01-08T09:16:18.621Z,18.64
2023-01-08T09:21:21.158Z,18.43
2023-01-08T09:26:23.222Z,18.63
2023-01-08T09:31:26.382Z,19.20
2023-01-08T09:36:29.971Z,19.90
2023-01-08T09:41:35.345Z,19.99
2023-01-08T09:46:37.835Z,20.74
2023-01-08T09:51:40.232Z,20.70
2023-01-08T09:56:42.754Z,20.50
2023-01-08T10:01:46.763Z,21.26
2023-01-08T10:07:19.179Z,21.40
2023-01-08T10:12:27.643Z,21.70
2023-01-08T10:18:06.411Z,22.11
2023-01-08T10:23:14.086Z,21.43
2023-01-08T10:28:28.900Z,21.89
2023-01-08T10:33:38.653Z,21.92
2023-01-08T10:38:49.927Z,21.97
2023-01-08T10:44:05.151Z,22.55
2023-01-08T10:49:32.701Z,22.04
2023-01-08T10:54:37.899Z,21.99
2023-01-08T10:59:42.720Z,20.02
2023-01-08T11:04:51.662Z,19.42
2023-01-08T11:09:55.154Z,18.83
2023-01-08T11:14:57.716Z,17.90
2023-01-08T11:20:30.900Z,17.49
2023-01-08T11:25:35.055Z,17.30
2023-01-08T11:30:39.805Z,17.30
2023-01-08T11:35:53.184Z,16.89
2023-01-08T11:41:00.317Z,16.56
2023-01-08T11:46:31.293Z,16.28
2023-01-08T11:52:04.471Z,16.09
2023-01-08T11:57:34.176Z,15.83
2023-01-08T12:02:56.363Z,15.48
2023-01-08T12:08:08.658Z,14.93
2023-01-08T12:13:35.696Z,15.15
2023-01-08T12:19:02.424Z,15.20
2023-01-08T12:24:17.700Z,15.01
2023-01-08T12:29:33.420Z,15.04
2023-01-08T12:34:53.891Z,14.53
2023-01-08T12:40:07.412Z,14.68
2023-01-08T12:45:32.910Z,14.72
2023-01-08T12:50:45.354Z,14.40
2023-01-08T12:56:14.807Z,14.51
2023-01-08T13:01:28.100Z,14.23
2023-01-08T13:06:31.018Z,13.97
2023-01-08T13:11:37.887Z,14.03
2023-01-08T13:16:42.638Z,13.59
2023-01-08T13:21:53.355Z,13.49
2023-01-08T13:27:09.774Z,13.48
2023-01-08T13:32:27.021Z,13.32
2023-01-08T13:37:29.117Z,13.24
2023-01-08T13:42:31.636Z,13.39
2023-01-08T13:47:37.034Z,13.37
2023-01-08T13:52:49.445Z,12.99
2023-01-08T13:58:02.322Z,12.71
2023-01-08T14:03:04.912Z,12.27
2023-01-08T14:08:22.271Z,11.49
2023-01-08T14:13:31.170Z,10.62
2023-01-08T14:18:34.557Z,10.22
2023-01-08T14:23:43.661Z,10.04
2023-01-08T14:28:52.907Z,9.46
2023-01-08T14:33:58.276Z,9.13
2023-01-08T14:39:00.534Z,8.69
2023-01-08T14:44:03.182Z,8.24
2023-01-08T14:49:05.630Z,8.04
2023-01-08T14:54:10.037Z,7.90
2023-01-08T14:59:12.852Z,7.68
2023-01-08T15:04:20.465Z,7.51
2023-01-08T15:09:31.016Z,6.94
2023-01-08T15:14:37.522Z,6.69
2023-01-08T15:19:46.914Z,6.33
2023-01-08T15:24:59.035Z,6.15
2023-01-08T15:30:05.731Z,5.79
2023-01-08T15:35:16.387Z,5.67
2023-01-08T15:40:18.773Z,5.35
2023-01-08T15:45:28.093Z,4.99
2023-01-08T15:50:38.025Z,4.88
2023-01-08T15:55:43.755Z,4.43
2023-01-08T16:00:47.120Z,4.33
2023-01-08T16:05:49.540Z,4.13
2023-01-08T16:10:55.453Z,3.91
2023-01-08T16:15:57.896Z,3.84
2023-01-08T16:21:01.749Z,3.47
2023-01-08T16:26:14.983Z,4.64
2023-01-08T16:31:17.208Z,5.13
2023-01-08T16:36:19.660Z,4.38
2023-01-08T16:41:21.997Z,4.40
2023-01-08T16:46:24.365Z,4.42
2023-01-08T16:51:28.018Z,4.33
2023-01-08T16:56:30.355Z,4.24
2023-01-08T17:01:35.928Z,4.09
2023-01-08T17:06:38.553Z,3.94
2023-01-08T17:11:40.692Z,3.76
2023-01-08T17:16:46.113Z,3.66
2023-01-08T17:21:50.922Z,3.01
2023-01-08T17:26:53.316Z,2.43
2023-01-08T17:31:55.674Z,2.00
2023-01-08T17:36:58.015Z,1.37
2023-01-08T17:42:38.854Z,1.37
2023-01-08T17:47:41.128Z,0.82
2023-01-08T17:52:47.781Z,0.65
2023-01-08T17:57:50.208Z,0.92
2023-01-08T18:02:52.865Z,0.48
2023-01-08T18:07:57.696Z,0.39
2023-01-08T18:12:59.961Z,0.31
2023-01-08T18:18:04.927Z,0.01
2023-01-08T18:23:07.555Z,0.28
2023-01-08T18:28:10.061Z,0.26
2023-01-08T18:33:16.307Z,0.19
2023-01-08T18:38:18.518Z,-0.10
2023-01-08T18:43:26.112Z,0.08
2023-01-08T18:48:34.523Z,-0.55
2023-01-08T18:53:40.283Z,-0.28
2023-01-08T18:58:42.959Z,-0.14
2023-01-08T19:03:48.490Z,-0.25
2023-01-08T19:08:51.945Z,-0.49
2023-01-08T19:13:57.538Z,-0.62
2023-01-08T19:19:00.511Z,-0.95
2023-01-08T19:24:02.938Z,-0.77
2023-01-08T19:29:05.366Z,-0.74
2023-01-08T19:34:07.504Z,-1.16
2023-01-08T19:39:11.410Z,-1.23
2023-01-08T19:44:13.818Z,-0.83
2023-01-08T19:49:20.896Z,-1.50
2023-01-08T19:54:31.956Z,-0.99
2023-01-08T19:59:35.969Z,-0.91
2023-01-08T20:04:44.040Z,-1.29
2023-01-08T20:09:48.945Z,-1.27
2023-01-08T20:14:51.425Z,-1.40
2023-01-08T20:19:58.623Z,-0.91
2023-01-08T20:25:00.998Z,-1.09
2023-01-08T20:30:05.344Z,-1.53
2023-01-08T20:35:13.717Z,-1.65
2023-01-08T20:40:25.258Z,-1.76
2023-01-08T20:45:27.681Z,-1.29
2023-01-08T20:50:30.205Z,-1.32
2023-01-08T20:55:32.574Z,-1.51
2023-01-08T21:00:34.758Z,-1.61
2023-01-08T21:05:38.568Z,-1.43
2023-01-08T21:10:40.972Z,-1.23
2023-01-08T21:15:43.308Z,-1.38
2023-01-08T21:20:45.971Z,-1.36
2023-01-08T21:25:49.359Z,-1.57
2023-01-08T21:30:51.953Z,-1.56
2023-01-08T21:35:54.083Z,-1.42
2023-01-08T21:41:04.780Z,-1.67
2023-01-08T21:46:07.238Z,-1.67
2023-01-08T21:51:30.088Z,-1.41
2023-01-08T21:56:32.706Z,-1.66
2023-01-08T22:01:34.991Z,-1.54
2023-01-08T22:06:37.185Z,-1.74
2023-01-08T22:11:48.180Z,-1.79
2023-01-08T22:16:50.313Z,-1.81
2023-01-08T22:21:52.758Z,-2.13
2023-01-08T22:26:55.253Z,-2.16
2023-01-08T22:31:57.554Z,-1.98
2023-01-08T22:36:59.707Z,-2.06
2023-01-08T22:42:02.182Z,-2.00
2023-01-08T22:47:06.397Z,-2.09
2023-01-08T22:52:10.028Z,-1.95
2023-01-08T22:57:12.385Z,-2.19
2023-01-08T23:02:14.850Z,-2.06
2023-01-08T23:07:17.775Z,-2.12
2023-01-08T23:12:19.985Z,-2.09
2023-01-08T23:17:22.448Z,-1.77
2023-01-08T23:22:24.914Z,-1.78
2023-01-08T23:27:30.530Z,-2.02
2023-01-08T23:32:33.014Z,-2.00
2023-01-08T23:37:35.521Z,-2.26
2023-01-08T23:42:37.735Z,-2.43
2023-01-08T23:47:39.977Z,-2.51
2023-01-08T23:52:42.503Z,-2.62
2023-01-08T23:57:45.508Z,-2.12
